Time;durP1;ratioP1;P1;durP2;ratioP2;P2;SDS_P1;SDS_P2;PMS_P1;PMS_P2;Temp;Humidity;BMP_temperature;BMP_pressure;BME280_temperature;BME280_humidity;BME280_pressure;Samples;Min_cycle;Max_cycle;Signal;HPM_P1;HPM_P2
2023/03/24 00:00:19;;;;;;;7.63;1.85;;;;;;;6.74;77.97;97895.84;5014246;28;20132;-46
2023/03/24 00:02:55;;;;;;;12.25;1.80;;;;;;;6.74;78.19;97874.63;5014047;28;20852;-43
2023/03/24 00:05:22;;;;;;;10.60;1.83;;;;;;;6.76;78.23;97890.72;5014663;28;20038;-46
2023/03/24 00:07:49;;;;;;;8.60;2.08;;;;;;;6.80;78.42;97899.00;5014900;28;20049;-45
2023/03/24 00:10:21;;;;;;;13.25;1.45;;;;;;;6.79;78.09;97903.69;4997479;28;20136;-46
2023/03/24 00:12:49;;;;;;;8.48;1.75;;;;;;;6.80;78.28;97896.25;5018478;28;20057;-43
2023/03/24 00:15:19;;;;;;;3.65;1.23;;;;;;;6.81;78.11;97900.56;5013287;28;20062;-49
2023/03/24 00:17:49;;;;;;;8.55;2.00;;;;;;;6.82;78.40;97902.13;5010808;28;20056;-44
2023/03/24 00:20:19;;;;;;;9.77;3.90;;;;;;;6.83;78.23;97914.72;4992073;28;20484;-43
2023/03/24 00:22:49;;;;;;;7.60;1.45;;;;;;;6.85;78.20;97915.09;5011449;28;20128;-47
2023/03/24 00:25:19;;;;;;;7.70;1.90;;;;;;;6.87;78.39;97915.50;5011491;28;20038;-50
2023/03/24 00:27:47;;;;;;;11.50;2.92;;;;;;;6.87;78.16;97918.25;5012101;28;20057;-50
2023/03/24 00:30:16;;;;;;;8.52;2.40;;;;;;;6.86;78.04;97908.44;5011728;28;20057;-46
2023/03/24 00:32:44;;;;;;;8.43;2.20;;;;;;;6.87;78.02;97929.25;5011743;28;20060;-44
2023/03/24 00:35:15;;;;;;;6.15;1.30;;;;;;;6.88;78.22;97928.09;5011443;28;20049;-44
2023/03/24 00:37:43;;;;;;;8.38;2.05;;;;;;;6.87;77.95;97926.50;5011089;28;20503;-44
2023/03/24 00:40:15;;;;;;;8.98;1.90;;;;;;;6.88;78.23;97922.59;5011318;28;20100;-44
2023/03/24 00:42:44;;;;;;;12.68;3.70;;;;;;;6.86;78.29;97911.19;5006027;28;20111;-45
2023/03/24 00:45:14;;;;;;;11.82;3.33;;;;;;;6.87;78.29;97932.00;5009337;28;20129;-43
2023/03/24 00:47:43;;;;;;;9.40;1.85;;;;;;;6.86;78.04;97914.72;5010469;28;20050;-46
2023/03/24 00:50:16;;;;;;;9.80;1.60;;;;;;;6.86;77.97;97919.44;5011124;28;20060;-45
2023/03/24 00:52:46;;;;;;;9.38;1.65;;;;;;;6.84;78.10;97922.56;5009467;28;20056;-45
2023/03/24 00:55:14;;;;;;;8.57;1.65;;;;;;;6.86;78.22;97924.94;5010720;28;20571;-44
2023/03/24 00:57:49;;;;;;;13.90;1.80;;;;;;;6.83;78.20;97925.72;5011033;28;20547;-45
2023/03/24 01:00:20;;;;;;;11.10;2.50;;;;;;;6.82;78.39;97918.63;5011011;28;20443;-43
2023/03/24 01:02:52;;;;;;;6.97;1.67;;;;;;;6.81;78.08;97928.03;5011326;28;20161;-47
2023/03/24 01:05:21;;;;;;;8.40;1.25;;;;;;;6.81;78.52;97928.03;5010896;28;20453;-44
2023/03/24 01:07:51;;;;;;;6.60;1.65;;;;;;;6.80;78.54;97932.00;5010640;28;20061;-44
2023/03/24 01:10:20;;;;;;;6.85;1.77;;;;;;;6.80;78.50;97932.78;5010388;28;20485;-46
2023/03/24 01:12:47;;;;;;;11.57;2.13;;;;;;;6.79;78.54;97935.91;4992510;28;20054;-45
2023/03/24 01:15:17;;;;;;;8.43;1.90;;;;;;;6.79;78.49;97941.41;5000772;28;20058;-44
2023/03/24 01:17:45;;;;;;;9.60;2.65;;;;;;;6.80;78.82;97943.00;4997531;28;20389;-43
2023/03/24 01:20:13;;;;;;;10.93;1.70;;;;;;;6.81;78.69;97933.53;4993332;28;20174;-47
2023/03/24 01:22:43;;;;;;;8.38;1.40;;;;;;;6.82;78.96;97940.63;5010310;28;20068;-43
2023/03/24 01:25:15;;;;;;;11.35;2.03;;;;;;;6.83;78.69;97958.72;5010508;28;20046;-45
2023/03/24 01:27:43;;;;;;;7.85;1.58;;;;;;;6.84;78.92;97949.28;5009441;28;20050;-45
2023/03/24 01:30:13;;;;;;;8.82;1.83;;;;;;;6.84;79.07;97938.28;5007634;28;20041;-43
2023/03/24 01:32:40;;;;;;;6.28;1.40;;;;;;;6.85;78.96;97950.84;5009306;28;20046;-44
2023/03/24 01:35:07;;;;;;;6.43;1.90;;;;;;;6.86;78.98;97935.94;5008758;28;20475;-43
2023/03/24 01:37:34;;;;;;;2.97;1.27;;;;;;;6.86;79.12;97935.94;5011170;28;20069;-43
2023/03/24 01:40:05;;;;;;;13.85;2.50;;;;;;;6.89;79.55;97949.69;5009373;28;20052;-43
2023/03/24 01:42:32;;;;;;;11.90;2.20;;;;;;;6.91;79.35;97954.81;4990943;28;20522;-43
2023/03/24 01:45:20;;;;;;;12.70;2.03;;;;;;;6.92;78.91;97951.66;5008658;28;20046;-45
2023/03/24 01:47:48;;;;;;;9.93;1.63;;;;;;;6.94;79.28;97954.00;5006132;28;20100;-44
2023/03/24 01:50:14;;;;;;;6.13;1.95;;;;;;;6.97;79.27;97961.50;5007352;28;20096;-44
2023/03/24 01:52:41;;;;;;;6.97;1.50;;;;;;;7.01;79.27;97940.28;5005363;28;20054;-44
2023/03/24 01:55:14;;;;;;;12.57;1.83;;;;;;;7.05;79.18;97960.34;5012447;28;20037;-48
2023/03/24 01:57:46;;;;;;;4.40;1.58;;;;;;;7.08;79.08;97965.84;5006683;28;20048;-43
2023/03/24 02:00:17;;;;;;;10.55;3.00;;;;;;;7.11;79.25;97969.78;5006907;28;20448;-43
2023/03/24 02:02:48;;;;;;;10.10;1.60;;;;;;;7.14;79.28;97963.50;5006023;28;20550;-47
2023/03/24 02:05:16;;;;;;;3.58;1.38;;;;;;;7.17;79.24;97940.72;5009620;28;20049;-43
2023/03/24 02:07:52;;;;;;;7.82;1.30;;;;;;;7.18;79.33;97965.09;4991858;28;20077;-46
2023/03/24 02:10:22;;;;;;;9.45;1.38;;;;;;;7.21;79.26;97958.00;4998681;28;20045;-43
2023/03/24 02:12:49;;;;;;;8.05;1.40;;;;;;;7.21;79.29;97958.00;4990232;28;20496;-43
2023/03/24 02:15:18;;;;;;;8.95;1.88;;;;;;;7.22;79.38;97954.88;4991479;28;20070;-44
2023/03/24 02:18:00;;;;;;;5.68;1.75;;;;;;;7.22;79.41;97962.34;4991614;28;20049;-45
2023/03/24 02:20:42;;;;;;;10.57;1.48;;;;;;;7.21;79.50;97947.00;5009424;28;20066;-43
2023/03/24 02:23:39;;;;;;;8.80;1.67;;;;;;;7.19;79.66;97950.16;4996580;28;20042;-47
2023/03/24 02:26:30;;;;;;;8.10;1.50;;;;;;;7.16;79.76;97955.66;5009016;28;20057;-44
2023/03/24 02:29:19;;;;;;;11.50;2.50;;;;;;;7.14;79.80;97955.25;4986708;28;20053;-43
2023/03/24 02:32:16;;;;;;;12.48;2.35;;;;;;;7.12;79.93;97958.38;5007445;28;20050;-43
2023/03/24 02:35:02;;;;;;;12.73;2.70;;;;;;;7.15;80.00;97959.56;4990372;28;20046;-43
2023/03/24 02:37:37;;;;;;;12.43;2.33;;;;;;;7.15;79.85;97959.56;5008543;28;20511;-47
2023/03/24 02:40:26;;;;;;;9.40;2.88;;;;;;;7.12;79.87;97965.88;5008716;28;20061;-44
2023/03/24 02:43:16;;;;;;;6.68;1.55;;;;;;;7.10;79.98;97957.19;5000301;28;20072;-43
2023/03/24 02:45:49;;;;;;;7.80;1.73;;;;;;;7.08;79.93;97965.06;5009108;28;20136;-43
2023/03/24 02:48:31;;;;;;;8.57;1.60;;;;;;;7.06;80.07;97961.91;5009158;28;20054;-43
2023/03/24 02:51:26;;;;;;;9.80;1.63;;;;;;;7.03;80.16;97957.19;5007299;28;20038;-44
2023/03/24 02:54:15;;;;;;;6.75;1.70;;;;;;;7.02;80.31;97961.09;4991182;28;20054;-45
2023/03/24 02:56:50;;;;;;;9.07;2.25;;;;;;;7.00;80.43;97964.25;5008862;28;20125;-44
2023/03/24 02:59:30;;;;;;;11.65;2.05;;;;;;;7.01;80.46;97959.56;5008980;28;20132;-46
2023/03/24 03:02:06;;;;;;;8.05;1.30;;;;;;;7.01;80.29;97962.31;5041723;22;20050;-43
2023/03/24 03:04:45;;;;;;;7.00;2.53;;;;;;;7.02;80.20;97961.09;5009057;28;20172;-44
2023/03/24 03:07:15;;;;;;;8.93;1.92;;;;;;;7.02;80.39;97972.09;5008829;28;20402;-43
2023/03/24 03:09:58;;;;;;;7.40;1.77;;;;;;;7.03;80.28;97970.94;5008601;28;20054;-45
2023/03/24 03:12:30;;;;;;;11.95;1.98;;;;;;;7.00;80.45;97963.47;4983783;28;20055;-48
2023/03/24 03:15:05;;;;;;;12.70;3.30;;;;;;;6.99;80.33;97961.91;5008239;28;20038;-44
2023/03/24 03:17:37;;;;;;;10.68;2.08;;;;;;;6.96;80.36;97974.47;5009584;28;20764;-43
2023/03/24 03:20:14;;;;;;;;;;;;;;;6.97;80.62;97964.25;5009213;28;20050;-44
2023/03/24 03:22:48;;;;;;;7.63;2.17;;;;;;;6.94;80.29;97981.50;5008704;28;19922;-43
2023/03/24 03:25:21;;;;;;;7.95;1.25;;;;;;;6.92;80.41;97978.38;5008784;28;20095;-44
2023/03/24 03:27:51;;;;;;;10.82;1.35;;;;;;;6.92;80.40;97967.38;5006159;28;20140;-43
2023/03/24 03:30:29;;;;;;;5.60;1.40;;;;;;;6.93;80.39;97966.22;4990833;28;20086;-44
2023/03/24 03:33:02;;;;;;;8.93;1.75;;;;;;;6.92;80.55;97968.16;5005977;28;20068;-43
2023/03/24 03:35:36;;;;;;;7.97;1.45;;;;;;;6.93;80.48;97971.72;4987110;28;20050;-46
2023/03/24 03:38:06;;;;;;;13.25;1.60;;;;;;;6.93;80.41;97967.00;5007011;28;20096;-43
2023/03/24 03:40:40;;;;;;;5.80;1.35;;;;;;;6.91;80.61;97971.31;5006669;28;20045;-44
2023/03/24 03:43:07;;;;;;;9.95;2.00;;;;;;;6.91;80.79;97957.56;5006442;28;20394;-44
2023/03/24 03:45:34;;;;;;;5.05;1.20;;;;;;;6.91;80.61;97974.06;5003387;28;20045;-43
2023/03/24 03:48:01;;;;;;;3.67;1.52;;;;;;;6.93;80.69;97968.97;5007430;28;20108;-43
2023/03/24 03:50:28;;;;;;;6.78;1.50;;;;;;;6.93;80.56;97963.47;5006148;28;20049;-43
2023/03/24 03:52:56;;;;;;;9.73;2.95;;;;;;;6.95;80.53;97961.09;5010656;28;20045;-45
2023/03/24 03:55:23;;;;;;;9.75;2.00;;;;;;;6.97;80.53;97976.03;5010865;28;20140;-47
2023/03/24 03:57:50;;;;;;;7.00;1.30;;;;;;;6.99;80.63;97964.66;5010162;28;20092;-43
2023/03/24 04:00:19;;;;;;;6.82;1.35;;;;;;;7.00;80.54;97975.25;5010974;28;20049;-44
2023/03/24 04:03:16;;;;;;;13.93;1.30;;;;;;;7.03;80.64;97985.50;4990566;28;20079;-48
2023/03/24 04:06:26;;;;;;;16.58;1.90;;;;;;;7.06;80.57;97986.69;5002487;28;20060;-48
2023/03/24 04:09:36;;;;;;;13.02;1.63;;;;;;;7.09;80.68;97972.16;4963943;28;20050;-44
2023/03/24 04:12:33;;;;;;;12.77;2.53;;;;;;;7.11;80.57;97964.28;4961900;28;20561;-43
2023/03/24 04:15:06;;;;;;;17.33;1.95;;;;;;;7.11;80.43;97972.53;5010917;28;20046;-43
2023/03/24 04:17:48;;;;;;;8.90;2.47;;;;;;;7.09;80.51;97964.69;5009942;28;20046;-45
2023/03/24 04:20:23;;;;;;;9.07;1.77;;;;;;;7.09;80.59;97966.66;5010729;28;20050;-43
2023/03/24 04:23:13;;;;;;;10.27;2.05;;;;;;;7.11;80.71;97969.78;5007494;28;20050;-43
2023/03/24 04:26:00;;;;;;;16.70;2.65;;;;;;;7.14;80.67;97975.31;5005888;28;20415;-46
2023/03/24 04:28:46;;;;;;;7.20;1.63;;;;;;;7.16;80.61;97966.66;4998338;28;20061;-43
2023/03/24 04:31:36;;;;;;;12.23;1.95;;;;;;;7.17;80.75;97969.03;5004290;28;20046;-47
2023/03/24 04:34:19;;;;;;;10.35;2.53;;;;;;;7.20;80.58;97973.72;5008555;28;20041;-44
2023/03/24 04:36:49;;;;;;;8.80;2.05;;;;;;;7.21;80.56;97980.03;5011010;28;20131;-46
2023/03/24 04:39:26;;;;;;;17.30;2.53;;;;;;;7.21;80.52;97974.53;5008502;28;20077;-43
2023/03/24 04:41:57;;;;;;;17.67;1.88;;;;;;;7.23;80.41;97983.16;5008582;28;20131;-43
2023/03/24 04:44:25;;;;;;;11.52;2.08;;;;;;;7.23;80.16;97974.91;5008722;28;20038;-50
2023/03/24 04:46:55;;;;;;;21.88;2.97;;;;;;;7.23;80.44;97975.69;5004207;28;20133;-43
2023/03/24 04:49:26;;;;;;;17.50;3.75;;;;;;;7.22;80.60;97968.66;5008786;28;20053;-43
2023/03/24 04:51:53;;;;;;;17.38;1.92;;;;;;;7.20;80.33;97978.47;5010222;28;20120;-43
2023/03/24 04:54:22;;;;;;;17.77;2.55;;;;;;;7.19;80.58;97983.19;5010026;28;20572;-43
2023/03/24 04:56:58;;;;;;;10.65;2.30;;;;;;;7.20;80.48;97975.72;5009465;28;20053;-43
2023/03/24 04:59:24;;;;;;;12.40;2.58;;;;;;;7.20;80.53;97992.22;5010843;28;20462;-43
2023/03/24 05:01:51;;;;;;;14.35;2.30;;;;;;;7.19;80.15;97971.38;5008892;28;20120;-43
2023/03/24 05:04:21;;;;;;;15.88;3.38;;;;;;;7.17;80.64;97979.25;5010493;28;20133;-43
2023/03/24 05:06:49;;;;;;;8.77;2.45;;;;;;;7.16;80.58;97978.44;4992939;28;20050;-44
2023/03/24 05:09:23;;;;;;;12.35;1.98;;;;;;;7.16;80.57;97991.41;5010670;28;20049;-43
2023/03/24 05:11:50;;;;;;;13.00;2.20;;;;;;;7.17;80.52;97985.53;4980591;28;20057;-43
2023/03/24 05:14:17;;;;;;;12.43;2.17;;;;;;;7.16;80.73;97985.91;5009442;28;20380;-44
2023/03/24 05:16:44;;;;;;;12.15;2.10;;;;;;;7.16;80.74;97989.47;5011446;28;20407;-43
2023/03/24 05:19:11;;;;;;;12.10;4.75;;;;;;;7.16;80.88;97996.91;5010307;28;20121;-44
2023/03/24 05:21:38;;;;;;;15.30;2.45;;;;;;;7.16;80.73;97994.16;5003034;28;20190;-43
2023/03/24 05:24:05;;;;;;;13.95;2.67;;;;;;;7.16;80.74;97997.72;4987636;28;20046;-45
2023/03/24 05:26:32;;;;;;;15.48;2.38;;;;;;;7.16;80.77;97994.97;4991948;28;20511;-43
2023/03/24 05:28:59;;;;;;;16.42;3.92;;;;;;;7.17;80.78;97996.53;5007287;28;20049;-43
2023/03/24 05:31:26;;;;;;;11.98;3.95;;;;;;;7.16;80.98;98000.47;4991150;28;20048;-43
2023/03/24 05:33:54;;;;;;;14.57;2.70;;;;;;;7.17;80.92;98006.75;5006912;28;20053;-43
2023/03/24 05:36:21;;;;;;;8.00;2.03;;;;;;;7.17;80.96;98004.81;5009412;28;20583;-44
2023/03/24 05:38:47;;;;;;;13.40;3.00;;;;;;;7.16;81.07;98000.47;5008998;28;20045;-43
2023/03/24 05:41:14;;;;;;;11.85;1.98;;;;;;;7.17;81.05;98009.50;5006505;28;20084;-43
2023/03/24 05:43:41;;;;;;;8.02;1.55;;;;;;;7.17;81.15;98012.25;5007463;28;20050;-43
2023/03/24 05:46:08;;;;;;;12.90;1.90;;;;;;;7.18;81.07;98011.84;5006392;28;20073;-44
2023/03/24 05:48:34;;;;;;;8.93;2.00;;;;;;;7.20;81.38;98017.00;5008404;28;20050;-48
2023/03/24 05:51:01;;;;;;;13.10;3.85;;;;;;;7.23;81.27;98011.47;5012043;28;20095;-43
2023/03/24 05:53:28;;;;;;;7.78;2.47;;;;;;;7.23;81.29;98016.19;4994799;28;20053;-44
2023/03/24 05:55:57;;;;;;;13.00;2.63;;;;;;;7.24;81.27;98017.78;5008443;28;20045;-43
2023/03/24 05:58:24;;;;;;;16.05;3.72;;;;;;;7.24;81.33;98006.75;5006973;28;20046;-43
2023/03/24 06:00:50;;;;;;;14.43;3.28;;;;;;;7.25;81.46;98011.09;5004764;28;20054;-43
2023/03/24 06:03:17;;;;;;;14.48;2.58;;;;;;;7.27;81.46;98009.53;4967373;28;20043;-43
2023/03/24 06:05:46;;;;;;;10.65;2.05;;;;;;;7.29;81.37;98017.38;4968559;28;20046;-47
2023/03/24 06:08:13;;;;;;;18.40;2.92;;;;;;;7.30;81.54;98011.50;4969819;28;20047;-43
2023/03/24 06:10:40;;;;;;;18.23;2.97;;;;;;;7.30;81.39;98019.78;4970787;28;20473;-43
2023/03/24 06:13:08;;;;;;;9.65;2.10;;;;;;;7.30;81.38;98013.47;4970705;28;20105;-43
2023/03/24 06:15:38;;;;;;;24.77;5.18;;;;;;;7.29;81.50;98014.63;4968464;28;20042;-44
2023/03/24 06:18:06;;;;;;;16.25;3.45;;;;;;;7.30;81.49;98011.50;4970287;28;20049;-43
2023/03/24 06:20:34;;;;;;;11.07;2.17;;;;;;;7.32;81.50;98019.38;4970639;28;20051;-43
2023/03/24 06:23:01;;;;;;;17.27;2.83;;;;;;;7.32;81.53;98013.88;4970486;28;20059;-44
2023/03/24 06:25:28;;;;;;;16.52;3.22;;;;;;;7.33;81.46;98016.22;4946734;28;20501;-43
2023/03/24 06:27:55;;;;;;;14.77;2.75;;;;;;;7.33;81.52;98020.94;4969124;28;20488;-43
2023/03/24 06:30:22;;;;;;;18.52;3.30;;;;;;;7.32;81.68;98017.41;4969669;28;20105;-46
2023/03/24 06:32:49;;;;;;;22.60;3.17;;;;;;;7.32;81.44;98019.38;4970388;28;20058;-51
2023/03/24 06:35:16;;;;;;;18.27;3.20;;;;;;;7.31;81.48;98026.03;4969811;28;20093;-43
2023/03/24 06:37:43;;;;;;;15.18;2.10;;;;;;;7.29;81.40;98031.16;4969431;28;20459;-43
2023/03/24 06:40:13;;;;;;;13.95;5.20;;;;;;;7.27;81.56;98025.25;4965900;28;20501;-43
2023/03/24 06:42:40;;;;;;;11.48;2.40;;;;;;;7.26;81.48;98034.69;4960666;28;20043;-49
2023/03/24 06:45:08;;;;;;;9.27;1.95;;;;;;;7.28;81.55;98035.09;4967814;28;20043;-43
2023/03/24 06:47:35;;;;;;;10.23;2.28;;;;;;;7.27;81.83;98036.25;4965322;28;20544;-44
2023/03/24 06:50:04;;;;;;;17.20;4.15;;;;;;;7.29;81.86;98031.16;4965118;28;20408;-46
2023/03/24 06:52:31;;;;;;;8.55;2.75;;;;;;;7.32;81.85;98047.69;4966372;28;20062;-43
2023/03/24 06:54:57;;;;;;;15.68;2.75;;;;;;;7.34;81.93;98045.31;4967718;28;20084;-43
2023/03/24 06:57:24;;;;;;;11.05;2.40;;;;;;;7.41;81.75;98043.78;4967909;28;20050;-45
2023/03/24 06:59:52;;;;;;;17.60;4.10;;;;;;;7.42;81.87;98046.13;4963704;28;20050;-48
2023/03/24 07:02:19;;;;;;;15.35;2.13;;;;;;;7.47;81.74;98047.69;4986892;28;20065;-48
2023/03/24 07:04:46;;;;;;;14.43;2.72;;;;;;;7.49;81.82;98040.66;5006538;28;20046;-43
2023/03/24 07:07:13;;;;;;;12.27;2.35;;;;;;;7.53;81.77;98057.94;5008460;28;20130;-51
2023/03/24 07:10:00;;;;;;;12.18;2.17;;;;;;;7.57;81.68;98049.72;5007214;28;20041;-49
2023/03/24 07:12:27;;;;;;;16.15;2.10;;;;;;;7.62;81.79;98054.81;5008965;28;20451;-44
2023/03/24 07:14:54;;;;;;;17.42;2.85;;;;;;;7.67;81.94;98051.69;5008533;28;20136;-43
2023/03/24 07:17:21;;;;;;;12.38;2.72;;;;;;;7.72;81.85;98060.34;5009404;28;20137;-43
2023/03/24 07:19:50;;;;;;;14.75;2.72;;;;;;;7.75;81.75;98056.81;5008754;28;20054;-43
2023/03/24 07:22:17;;;;;;;14.48;3.42;;;;;;;7.76;81.85;98058.38;5008539;28;20073;-43
2023/03/24 07:24:43;;;;;;;22.83;4.30;;;;;;;7.78;81.77;98047.75;5008055;28;20045;-43
2023/03/24 07:27:10;;;;;;;11.27;2.45;;;;;;;7.78;82.17;98045.00;5011876;28;20060;-44
2023/03/24 07:29:37;;;;;;;19.55;3.00;;;;;;;7.83;82.05;98052.09;5011386;28;20068;-46
2023/03/24 07:32:04;;;;;;;13.23;2.63;;;;;;;7.87;82.12;98042.66;5007711;28;20046;-43
2023/03/24 07:34:30;;;;;;;13.73;2.70;;;;;;;7.89;81.98;98054.06;5012920;28;20048;-45
2023/03/24 07:36:57;;;;;;;18.73;3.58;;;;;;;7.96;81.95;98040.31;4994922;28;20049;-43
2023/03/24 07:39:27;;;;;;;16.90;2.83;;;;;;;8.05;81.96;98052.91;5011751;28;20562;-43
2023/03/24 07:41:54;;;;;;;16.15;2.88;;;;;;;8.09;81.84;98050.91;5010058;28;20052;-44
2023/03/24 07:44:21;;;;;;;10.45;2.15;;;;;;;8.07;81.84;98047.78;5008874;28;20064;-44
2023/03/24 07:46:48;;;;;;;14.75;3.50;;;;;;;8.07;81.97;98043.06;5008301;28;20046;-43
2023/03/24 07:49:15;;;;;;;12.75;2.50;;;;;;;8.10;81.92;98047.00;5007069;28;20052;-43
2023/03/24 07:51:45;;;;;;;15.57;2.50;;;;;;;8.12;81.87;98053.69;4980459;28;20048;-45
2023/03/24 07:54:12;;;;;;;10.90;2.72;;;;;;;8.18;81.95;98046.56;5010826;28;20038;-45
2023/03/24 07:56:39;;;;;;;12.48;2.00;;;;;;;8.23;81.70;98048.16;5001654;28;20756;-43
2023/03/24 07:59:08;;;;;;;10.55;2.60;;;;;;;8.26;81.68;98056.41;4986173;28;20124;-48
2023/03/24 08:01:37;;;;;;;14.32;3.17;;;;;;;8.28;81.62;98042.28;5010107;28;20057;-43
2023/03/24 08:04:05;;;;;;;17.35;2.97;;;;;;;8.32;81.56;98060.38;4989062;28;20050;-44
2023/03/24 08:06:33;;;;;;;16.33;3.33;;;;;;;8.39;81.47;98056.84;5009824;28;20170;-43
2023/03/24 08:09:00;;;;;;;13.55;2.55;;;;;;;8.42;81.40;98050.53;5021330;28;20530;-44
2023/03/24 08:11:27;;;;;;;12.80;3.78;;;;;;;8.43;81.20;98065.88;5005678;28;20124;-43
2023/03/24 08:13:54;;;;;;;18.48;3.35;;;;;;;8.46;81.23;98054.88;4996652;28;20042;-47
2023/03/24 08:16:20;;;;;;;8.48;2.10;;;;;;;8.49;81.08;98058.81;5004516;28;20050;-47
2023/03/24 08:18:49;;;;;;;14.20;2.28;;;;;;;8.50;81.03;98052.09;5006232;28;20057;-43
2023/03/24 08:21:16;;;;;;;15.05;2.40;;;;;;;8.50;80.84;98054.84;4992212;28;20049;-43
2023/03/24 08:23:43;;;;;;;9.27;2.47;;;;;;;8.53;80.99;98051.28;5011246;28;20053;-43
2023/03/24 08:26:10;;;;;;;15.82;2.33;;;;;;;8.55;80.88;98044.19;5012975;28;20065;-43
2023/03/24 08:28:38;;;;;;;9.48;2.10;;;;;;;8.56;80.68;98047.75;5010107;28;20068;-43
2023/03/24 08:31:04;;;;;;;16.48;3.38;;;;;;;8.54;80.67;98056.44;5010566;28;20053;-43
2023/03/24 08:33:32;;;;;;;11.13;3.30;;;;;;;8.54;80.70;98050.91;5001598;28;20058;-46
2023/03/24 08:35:59;;;;;;;9.15;2.20;;;;;;;8.53;80.77;98051.28;5009334;28;20061;-43
2023/03/24 08:38:29;;;;;;;13.95;2.35;;;;;;;8.54;80.81;98050.13;5007439;28;20045;-46
2023/03/24 08:41:05;;;;;;;14.05;2.63;;;;;;;8.56;80.60;98065.09;5010315;28;20050;-43
2023/03/24 08:43:34;;;;;;;7.82;1.98;;;;;;;8.61;80.78;98061.13;5006810;28;20046;-43
2023/03/24 08:46:01;;;;;;;13.45;2.88;;;;;;;8.69;80.81;98056.38;5008782;28;20046;-48
2023/03/24 08:48:29;;;;;;;17.70;2.17;;;;;;;8.78;80.77;98048.50;5004209;28;20488;-43
2023/03/24 08:50:57;;;;;;;20.17;3.15;;;;;;;8.87;80.91;98052.38;4999159;28;20400;-43
2023/03/24 08:53:23;;;;;;;18.13;4.13;;;;;;;8.98;81.03;98042.09;5004160;28;20123;-47
2023/03/24 08:55:51;;;;;;;15.75;2.33;;;;;;;9.08;81.01;98054.31;5000817;28;20144;-45
2023/03/24 08:58:19;;;;;;;13.40;2.20;;;;;;;9.12;80.81;98053.09;5010172;28;20541;-47
2023/03/24 09:00:47;;;;;;;13.55;2.40;;;;;;;9.18;80.81;98061.75;5003929;28;20820;-43
2023/03/24 09:03:20;;;;;;;10.50;2.40;;;;;;;9.21;80.24;98038.06;5010001;28;20046;-43
2023/03/24 09:05:48;;;;;;;13.02;2.58;;;;;;;9.22;80.31;98050.66;5010046;28;20052;-44
2023/03/24 09:08:17;;;;;;;18.48;3.83;;;;;;;9.26;80.01;98051.47;5010191;28;20044;-43
2023/03/24 09:10:45;;;;;;;14.60;2.30;;;;;;;9.39;80.27;98060.84;5010993;28;20077;-44
2023/03/24 09:13:12;;;;;;;12.00;3.10;;;;;;;9.61;80.20;98054.03;5009084;28;20050;-43
2023/03/24 09:15:48;;;;;;;16.20;2.47;;;;;;;9.75;79.61;98051.16;5009660;28;20058;-45
2023/03/24 09:18:17;;;;;;;11.65;2.30;;;;;;;9.81;79.36;98044.03;5008568;28;20056;-43
2023/03/24 09:20:45;;;;;;;18.27;2.60;;;;;;;9.86;79.39;98057.41;5005580;28;20057;-43
2023/03/24 09:23:12;;;;;;;18.92;2.78;;;;;;;10.50;79.43;98063.25;5007922;28;20034;-45
2023/03/24 09:25:39;;;;;;;22.65;3.67;;;;;;;11.05;77.92;98065.81;5003746;28;20530;-43
2023/03/24 09:28:07;;;;;;;10.95;2.13;;;;;;;11.63;77.02;98056.38;5008444;28;20051;-44
2023/03/24 09:30:35;;;;;;;9.80;1.80;;;;;;;11.72;75.32;98058.66;5007661;28;20110;-44
2023/03/24 09:33:02;;;;;;;16.48;2.70;;;;;;;11.63;75.69;98059.13;5009022;28;20041;-45
2023/03/24 09:35:29;;;;;;;13.73;2.22;;;;;;;11.58;75.57;98054.84;5009386;28;20073;-44
2023/03/24 09:37:56;;;;;;;10.38;2.47;;;;;;;11.85;75.69;98062.41;5008949;28;20045;-46
2023/03/24 09:40:27;;;;;;;10.30;2.60;;;;;;;12.56;74.71;98062.06;5008611;28;20037;-44
2023/03/24 09:43:26;;;;;;;17.60;2.13;;;;;;;13.16;72.60;98061.72;5008213;28;20046;-44
2023/03/24 09:45:56;;;;;;;10.60;2.50;;;;;;;12.94;71.68;98054.22;5000316;28;20506;-44
2023/03/24 09:48:42;;;;;;;13.07;2.38;;;;;;;12.38;71.30;98044.94;5009252;28;20042;-46
2023/03/24 09:51:30;;;;;;;11.98;2.65;;;;;;;12.02;72.01;98037.19;5007217;28;20388;-44
2023/03/24 09:54:06;;;;;;;10.85;1.85;;;;;;;12.35;72.54;98046.56;5007357;28;20045;-43
2023/03/24 09:56:36;;;;;;;9.35;2.95;;;;;;;13.31;70.51;98051.13;5006531;28;20046;-44
2023/03/24 09:59:09;;;;;;;10.80;2.92;;;;;;;13.83;68.68;98043.63;5007376;28;20129;-43
2023/03/24 10:01:36;;;;;;;9.98;2.00;;;;;;;13.95;67.81;98034.59;4991227;28;20152;-43
2023/03/24 10:04:03;;;;;;;10.27;2.00;;;;;;;14.03;67.61;98035.97;5008770;28;20113;-45
2023/03/24 10:06:38;;;;;;;11.27;2.47;;;;;;;13.89;66.60;98028.00;5007446;28;20116;-44
2023/03/24 10:09:12;;;;;;;10.18;1.80;;;;;;;13.62;66.44;98018.28;5008494;28;20038;-44
2023/03/24 10:11:50;;;;;;;7.00;1.60;;;;;;;13.41;66.19;98022.31;5007727;28;20049;-46
2023/03/24 10:14:37;;;;;;;5.95;1.25;;;;;;;13.02;65.22;98027.88;4985821;28;20100;-43
2023/03/24 10:17:27;;;;;;;9.40;1.38;;;;;;;12.34;65.40;98024.81;5004663;28;20049;-44
2023/03/24 10:20:02;;;;;;;10.02;2.20;;;;;;;11.92;66.06;98031.81;5001665;28;20034;-44
2023/03/24 10:22:53;;;;;;;8.27;1.83;;;;;;;11.77;66.39;98016.59;5004312;28;20069;-46
2023/03/24 10:25:41;;;;;;;8.73;2.20;;;;;;;12.10;65.76;98013.69;5006764;28;20054;-44
2023/03/24 10:28:19;;;;;;;7.88;1.33;;;;;;;12.16;65.59;98027.84;5005593;28;20500;-45
2023/03/24 10:30:48;;;;;;;8.55;1.70;;;;;;;12.18;65.10;98015.13;5003963;28;20050;-45
2023/03/24 10:33:15;;;;;;;9.15;1.70;;;;;;;12.15;65.50;98015.22;5007257;28;20050;-44
2023/03/24 10:35:50;;;;;;;9.93;1.33;;;;;;;11.97;65.21;98009.94;4991727;28;20052;-44
2023/03/24 10:38:20;;;;;;;4.05;1.23;;;;;;;11.83;65.62;98009.38;5007812;28;20141;-49
2023/03/24 10:40:49;;;;;;;7.68;1.17;;;;;;;11.75;65.93;98016.25;5005901;28;20128;-44
2023/03/24 10:43:18;;;;;;;5.40;1.23;;;;;;;11.57;65.95;97999.84;5007011;28;20050;-43
2023/03/24 10:45:51;;;;;;;5.32;1.45;;;;;;;11.44;66.28;98018.22;5006504;28;20046;-44
2023/03/24 10:48:41;;;;;;;6.53;1.17;;;;;;;11.46;66.35;98002.75;5005821;28;20053;-44
2023/03/24 10:51:30;;;;;;;8.85;2.08;;;;;;;11.60;66.38;97983.16;4991566;28;20050;-48
2023/03/24 10:54:14;;;;;;;7.75;2.75;;;;;;;12.11;65.24;97993.06;5002612;28;20038;-46
2023/03/24 10:56:44;;;;;;;8.25;1.70;;;;;;;12.28;65.01;97982.88;5007570;28;20060;-43
2023/03/24 10:59:46;;;;;;;6.30;1.33;;;;;;;12.89;63.83;97974.19;5008987;28;20120;-43
2023/03/24 11:02:32;;;;;;;9.00;1.30;;;;;;;13.37;62.42;97955.69;4993237;28;20426;-43
2023/03/24 11:05:11;;;;;;;7.00;1.35;;;;;;;13.61;62.33;97973.03;5007550;28;20581;-44
2023/03/24 11:07:41;;;;;;;4.55;1.02;;;;;;;13.67;62.33;97989.97;5006125;28;20046;-43
2023/03/24 11:10:08;;;;;;;10.40;2.03;;;;;;;13.78;61.98;97971.84;5007942;28;20487;-44
2023/03/24 11:12:38;;;;;;;7.25;1.83;;;;;;;13.88;61.85;97968.00;5005993;28;20049;-46
2023/03/24 11:15:18;;;;;;;8.32;1.60;;;;;;;13.72;62.05;97972.78;4999873;28;20042;-44
2023/03/24 11:18:05;;;;;;;9.68;2.03;;;;;;;13.56;62.32;97945.75;5005472;28;20095;-46
2023/03/24 11:20:34;;;;;;;4.72;1.50;;;;;;;13.53;62.79;97954.19;5007773;28;20132;-44
2023/03/24 11:23:31;;;;;;;8.55;1.30;;;;;;;13.39;62.71;97950.50;5006227;28;20049;-44
2023/03/24 11:26:04;;;;;;;9.63;2.45;;;;;;;13.20;62.76;97951.34;4996574;28;20038;-51
2023/03/24 11:28:37;;;;;;;6.70;1.25;;;;;;;13.10;62.83;97940.44;4989228;28;20144;-44
2023/03/24 11:31:07;;;;;;;11.00;2.80;;;;;;;13.07;63.00;97944.88;5006577;28;20045;-47
2023/03/24 11:33:42;;;;;;;9.65;2.25;;;;;;;12.96;62.52;97963.72;4987015;28;20097;-44
2023/03/24 11:36:29;;;;;;;7.13;1.73;;;;;;;12.87;62.71;97948.84;4996808;28;20073;-44
2023/03/24 11:39:10;;;;;;;4.68;1.20;;;;;;;12.84;62.97;97934.59;5005958;28;20041;-47
2023/03/24 11:41:41;;;;;;;6.85;1.25;;;;;;;12.87;63.31;97954.41;5005095;28;20057;-47
2023/03/24 11:44:23;;;;;;;4.88;1.17;;;;;;;12.89;63.15;97954.75;5005571;28;20487;-43
2023/03/24 11:46:56;;;;;;;6.73;1.17;;;;;;;12.74;62.76;97963.38;4990676;28;20073;-49
2023/03/24 11:49:29;;;;;;;5.25;0.70;;;;;;;12.62;63.04;97939.03;5008835;28;20373;-44
2023/03/24 11:51:56;;;;;;;4.78;0.82;;;;;;;12.60;63.39;97930.31;5002591;28;20041;-44
2023/03/24 11:54:28;;;;;;;4.32;1.33;;;;;;;12.67;63.74;97932.19;5004129;28;20038;-44
2023/03/24 11:57:06;;;;;;;4.50;0.95;;;;;;;12.72;63.46;97935.25;5007308;28;20373;-45
2023/03/24 11:59:39;;;;;;;5.97;1.23;;;;;;;12.74;63.11;97929.25;5007026;28;20045;-44